sim
Sign-in with your pilot id or email,
or register
Callsign
Passwort

Schedule Details

Flight Number: OEF9118
Departure: Kolkata International Airport (VECC) at 10:20
Arrival: Mumbai Chhatrapati Shivaji International Airport (VABB) at 12:50

Weather Information
Getting current METAR information for VECC 160000Z 36003KT 2400 HZ BKN100 16/15 Q1015 NOSIG
Getting current METAR information for VABB 160000Z 00000KT 2100 HZ NSC 24/19 Q1012 NOSIG

Schedule Frequency

Route Map